Time;durP1;ratioP1;P1;durP2;ratioP2;P2;SDS_P1;SDS_P2;PMS_P1;PMS_P2;Temp;Humidity;BMP_temperature;BMP_pressure;BME280_temperature;BME280_humidity;BME280_pressure;Samples;Min_cycle;Max_cycle;Signal;HPM_P1;HPM_P2
2024/03/25 00:00:39;;;;;;;0.35;0.20;;;5.70;77.90;;;;;;5051786;28;20109;-82
2024/03/25 00:03:05;;;;;;;1.88;0.38;;;5.40;79.20;;;;;;5051760;28;20119;-80
2024/03/25 00:05:32;;;;;;;0.88;0.43;;;5.90;77.40;;;;;;5052277;28;20044;-82
2024/03/25 00:07:58;;;;;;;1.10;0.32;;;6.00;78.00;;;;;;5051948;28;20037;-82
2024/03/25 00:10:24;;;;;;;0.85;0.32;;;5.80;78.60;;;;;;5050943;28;20029;-81
2024/03/25 00:12:54;;;;;;;0.45;0.17;;;6.00;78.00;;;;;;5051934;28;20032;-83
2024/03/25 00:15:20;;;;;;;0.75;0.22;;;6.00;77.50;;;;;;5053714;28;20056;-82
2024/03/25 00:17:50;;;;;;;0.98;0.32;;;6.20;77.60;;;;;;5054948;28;20711;-81
2024/03/25 00:20:15;;;;;;;0.50;0.20;;;6.10;77.70;;;;;;5056600;28;20036;-82
2024/03/25 00:22:41;;;;;;;0.82;0.13;;;6.00;77.80;;;;;;5055071;28;25954;-82
2024/03/25 00:25:08;;;;;;;0.43;0.30;;;5.90;77.00;;;;;;5054610;28;20039;-82
2024/03/25 00:27:34;;;;;;;0.65;0.30;;;5.70;78.40;;;;;;5054540;28;20134;-82
2024/03/25 00:29:59;;;;;;;0.75;0.20;;;5.30;79.30;;;;;;5054954;28;20099;-81
2024/03/25 00:32:25;;;;;;;0.35;0.30;;;5.10;80.00;;;;;;5053855;28;20728;-81
2024/03/25 00:34:50;;;;;;;2.20;0.20;;;4.90;81.70;;;;;;5056106;28;20032;-81
2024/03/25 00:37:16;;;;;;;1.20;0.15;;;5.10;80.90;;;;;;5055772;28;20024;-81
2024/03/25 00:39:42;;;;;;;0.68;0.32;;;5.10;81.20;;;;;;5054648;28;20525;-81
2024/03/25 00:42:07;;;;;;;0.57;0.30;;;5.00;81.30;;;;;;5056551;28;20096;-82
2024/03/25 00:44:33;;;;;;;0.68;0.20;;;5.00;81.40;;;;;;5054349;28;20712;-82
2024/03/25 00:46:58;;;;;;;3.35;0.57;;;5.20;79.90;;;;;;5055837;28;20064;-82
2024/03/25 00:49:24;;;;;;;1.45;0.52;;;5.00;80.90;;;;;;5056531;28;20036;-81
2024/03/25 00:51:50;;;;;;;0.90;0.20;;;5.10;80.40;;;;;;5054383;28;20544;-82
2024/03/25 00:54:15;;;;;;;1.65;0.55;;;5.40;79.70;;;;;;5054654;28;20036;-82
2024/03/25 00:56:41;;;;;;;1.10;0.20;;;5.40;80.20;;;;;;5056061;28;20035;-81
2024/03/25 00:59:07;;;;;;;0.50;0.25;;;5.30;79.90;;;;;;5054791;28;22293;-81
2024/03/25 01:01:33;;;;;;;0.90;0.30;;;5.30;79.60;;;;;;5054668;28;20032;-82
2024/03/25 01:03:59;;;;;;;1.83;0.30;;;5.20;79.60;;;;;;5053697;28;20032;-81
2024/03/25 01:06:24;;;;;;;0.57;0.22;;;5.30;80.40;;;;;;5054970;28;20033;-81
2024/03/25 01:08:50;;;;;;;1.92;0.43;;;5.20;79.60;;;;;;5054477;28;20041;-82
2024/03/25 01:11:16;;;;;;;1.75;0.20;;;5.10;80.20;;;;;;5056398;28;20040;-81
2024/03/25 01:13:42;;;;;;;0.73;0.25;;;5.00;81.10;;;;;;5051794;28;20041;-82
2024/03/25 01:16:08;;;;;;;0.38;0.25;;;4.90;81.00;;;;;;5055965;28;20078;-81
2024/03/25 01:18:34;;;;;;;0.77;0.30;;;5.00;80.50;;;;;;5053627;28;20764;-81
2024/03/25 01:20:59;;;;;;;1.27;0.40;;;5.10;80.90;;;;;;5055746;28;20025;-82
2024/03/25 01:23:25;;;;;;;1.10;0.55;;;5.00;81.50;;;;;;5054472;28;20046;-82
2024/03/25 01:25:51;;;;;;;1.55;0.45;;;5.00;81.40;;;;;;5053940;28;20049;-81
2024/03/25 01:28:17;;;;;;;0.80;0.30;;;4.90;81.90;;;;;;5054542;28;20036;-82
2024/03/25 01:30:43;;;;;;;1.13;0.50;;;4.90;82.10;;;;;;5055502;28;20099;-81
2024/03/25 01:33:09;;;;;;;1.25;0.40;;;5.00;82.10;;;;;;5053020;28;20032;-81
2024/03/25 01:35:35;;;;;;;2.20;0.70;;;5.00;82.90;;;;;;5054215;28;20040;-83
2024/03/25 01:38:01;;;;;;;0.43;0.20;;;4.90;83.00;;;;;;5054492;28;20037;-82
2024/03/25 01:40:26;;;;;;;1.05;0.43;;;4.90;83.00;;;;;;5053862;28;20039;-81
2024/03/25 01:42:56;;;;;;;0.43;0.20;;;4.80;83.40;;;;;;5054682;28;20036;-82
2024/03/25 01:45:22;;;;;;;2.75;0.68;;;4.90;83.00;;;;;;5048454;28;20431;-82
2024/03/25 01:47:47;;;;;;;0.90;0.40;;;5.00;82.40;;;;;;5052278;28;20040;-81
2024/03/25 01:50:13;;;;;;;1.10;0.40;;;4.90;82.80;;;;;;5053265;28;20112;-81
2024/03/25 01:52:40;;;;;;;1.80;0.50;;;4.70;82.90;;;;;;5054167;28;20036;-81
2024/03/25 01:55:11;;;;;;;1.27;0.50;;;4.70;83.00;;;;;;5053216;28;20056;-81
2024/03/25 01:57:38;;;;;;;0.70;0.30;;;4.80;82.70;;;;;;5052414;28;25441;-81
2024/03/25 02:00:05;;;;;;;0.93;0.35;;;4.80;83.40;;;;;;5054352;28;20036;-81
2024/03/25 02:02:33;;;;;;;0.98;0.25;;;4.90;83.50;;;;;;5054144;28;20056;-82
2024/03/25 02:04:59;;;;;;;1.60;0.47;;;4.80;83.30;;;;;;5054646;28;20621;-81
2024/03/25 02:07:25;;;;;;;1.17;0.40;;;4.90;83.00;;;;;;5054633;28;20064;-82
2024/03/25 02:09:52;;;;;;;0.95;0.32;;;4.90;84.30;;;;;;5052823;28;20095;-82
2024/03/25 02:12:18;;;;;;;0.75;0.38;;;4.80;83.80;;;;;;5052960;28;20040;-82
2024/03/25 02:14:44;;;;;;;1.40;0.50;;;4.60;83.40;;;;;;5053713;28;20071;-81
2024/03/25 02:17:09;;;;;;;1.08;0.35;;;4.40;84.50;;;;;;5053270;28;20028;-81
2024/03/25 02:19:37;;;;;;;0.28;0.28;;;4.50;84.50;;;;;;5052316;28;20562;-82
2024/03/25 02:22:03;;;;;;;0.28;0.17;;;4.50;84.20;;;;;;5054209;28;20557;-81
2024/03/25 02:24:31;;;;;;;1.05;0.32;;;4.50;84.60;;;;;;5053296;28;20029;-81
2024/03/25 02:26:56;;;;;;;1.77;0.30;;;4.60;84.30;;;;;;5053006;28;20042;-82
2024/03/25 02:29:22;;;;;;;1.05;0.40;;;4.50;84.10;;;;;;5052839;28;20020;-81
2024/03/25 02:31:48;;;;;;;1.15;0.30;;;4.60;84.10;;;;;;5052620;28;20048;-82
2024/03/25 02:34:13;;;;;;;0.75;0.40;;;4.70;84.40;;;;;;5051085;28;20028;-82
2024/03/25 02:36:39;;;;;;;1.23;0.40;;;4.50;84.40;;;;;;5053742;28;20033;-81
2024/03/25 02:39:05;;;;;;;1.35;0.22;;;4.70;84.60;;;;;;5053248;28;20035;-82
2024/03/25 02:41:31;;;;;;;1.85;0.50;;;4.30;85.70;;;;;;5052606;28;20070;-82
2024/03/25 02:43:57;;;;;;;2.17;0.38;;;4.80;85.80;;;;;;5053929;28;20098;-81
2024/03/25 02:46:23;;;;;;;0.80;0.40;;;5.00;84.80;;;;;;5053362;28;20032;-81
2024/03/25 02:48:48;;;;;;;2.42;0.60;;;5.20;85.10;;;;;;5051695;28;20117;-81
2024/03/25 02:51:14;;;;;;;0.77;0.40;;;5.10;85.70;;;;;;5054110;28;20048;-82
2024/03/25 02:53:39;;;;;;;0.88;0.40;;;5.10;85.20;;;;;;5053363;28;20039;-82
2024/03/25 02:56:05;;;;;;;1.98;0.63;;;5.30;84.90;;;;;;5052930;28;20375;-82
2024/03/25 02:58:31;;;;;;;1.45;0.70;;;5.40;85.00;;;;;;5057365;28;20040;-81
2024/03/25 03:00:56;;;;;;;1.20;0.40;;;5.20;85.50;;;;;;5057366;28;20109;-82
2024/03/25 03:03:22;;;;;;;0.63;0.30;;;4.90;86.10;;;;;;5055855;28;20111;-79
2024/03/25 03:05:47;;;;;;;1.33;0.38;;;4.40;85.30;;;;;;5057487;28;20032;-81
2024/03/25 03:08:13;;;;;;;1.23;0.50;;;4.20;86.60;;;;;;5056620;28;23391;-79
2024/03/25 03:10:39;;;;;;;1.45;0.40;;;4.00;87.50;;;;;;5057274;28;21178;-80
2024/03/25 03:13:04;;;;;;;1.38;0.52;;;3.90;87.80;;;;;;5057668;28;20091;-81
2024/03/25 03:15:30;;;;;;;1.15;0.57;;;4.10;87.90;;;;;;5057042;28;20513;-79
2024/03/25 03:17:55;;;;;;;0.55;0.35;;;3.90;88.20;;;;;;5055350;28;20029;-79
2024/03/25 03:20:21;;;;;;;0.93;0.32;;;3.90;87.50;;;;;;5056969;28;20118;-79
2024/03/25 03:22:47;;;;;;;1.85;0.43;;;3.90;87.60;;;;;;5057400;28;20119;-80
2024/03/25 03:25:12;;;;;;;1.80;0.57;;;4.00;87.00;;;;;;5057520;28;20036;-80
2024/03/25 03:27:38;;;;;;;0.32;0.20;;;3.70;88.10;;;;;;5055765;28;20141;-79
2024/03/25 03:30:04;;;;;;;1.30;0.47;;;3.50;88.40;;;;;;5057018;28;20063;-80
2024/03/25 03:32:29;;;;;;;1.10;0.30;;;3.90;86.90;;;;;;5058373;28;20040;-80
2024/03/25 03:34:55;;;;;;;1.00;0.35;;;4.20;85.90;;;;;;5054337;28;20095;-82
2024/03/25 03:37:21;;;;;;;3.65;0.43;;;4.30;86.50;;;;;;5056109;28;20515;-83
2024/03/25 03:39:46;;;;;;;1.25;0.50;;;4.40;87.20;;;;;;5058368;28;20017;-79
2024/03/25 03:42:12;;;;;;;1.38;0.40;;;4.40;86.80;;;;;;5056065;28;20884;-79
2024/03/25 03:44:38;;;;;;;0.25;0.17;;;4.30;86.40;;;;;;5055465;28;20109;-81
2024/03/25 03:47:03;;;;;;;1.60;0.55;;;4.00;86.40;;;;;;5056672;28;20059;-79
2024/03/25 03:49:29;;;;;;;0.50;0.28;;;4.00;86.50;;;;;;5055851;28;20051;-80
2024/03/25 03:51:55;;;;;;;0.73;0.40;;;3.70;87.80;;;;;;5057661;28;20047;-79
2024/03/25 03:54:20;;;;;;;0.95;0.35;;;3.90;87.30;;;;;;5056758;28;20090;-79
2024/03/25 03:56:46;;;;;;;0.73;0.20;;;4.00;88.50;;;;;;5056764;28;20028;-79
2024/03/25 03:59:11;;;;;;;1.58;0.40;;;3.80;87.80;;;;;;5056222;28;20059;-82
2024/03/25 04:01:37;;;;;;;2.60;0.47;;;3.80;87.60;;;;;;5053922;28;20127;-82
2024/03/25 04:04:03;;;;;;;1.15;0.32;;;3.70;88.50;;;;;;5054134;28;20040;-82
2024/03/25 04:06:28;;;;;;;1.05;0.40;;;3.80;88.40;;;;;;5054575;28;20056;-82
2024/03/25 04:08:54;;;;;;;1.42;0.50;;;3.90;90.00;;;;;;5053299;28;20040;-83
2024/03/25 04:11:19;;;;;;;0.57;0.35;;;4.00;88.70;;;;;;5051870;28;20044;-82
2024/03/25 04:13:47;;;;;;;3.00;0.73;;;3.90;88.10;;;;;;5051662;28;20048;-83
2024/03/25 04:16:12;;;;;;;1.27;0.40;;;3.90;88.30;;;;;;5052629;28;20044;-82
2024/03/25 04:18:38;;;;;;;0.98;0.40;;;3.70;88.20;;;;;;5048401;28;20090;-80
2024/03/25 04:21:04;;;;;;;1.13;0.40;;;3.70;88.40;;;;;;5049592;28;20081;-81
2024/03/25 04:23:29;;;;;;;1.33;0.60;;;3.60;89.10;;;;;;5050511;28;20376;-83
2024/03/25 04:25:55;;;;;;;2.47;0.60;;;3.10;90.40;;;;;;5050976;28;20147;-80
2024/03/25 04:28:22;;;;;;;1.75;0.60;;;3.50;89.60;;;;;;5051402;28;20490;-81
2024/03/25 04:30:52;;;;;;;0.90;0.30;;;3.80;89.20;;;;;;5053499;28;20642;-82
2024/03/25 04:33:18;;;;;;;0.30;0.20;;;3.90;88.00;;;;;;5052120;28;20122;-83
2024/03/25 04:35:44;;;;;;;0.95;0.60;;;3.70;88.30;;;;;;5052220;28;20421;-79
2024/03/25 04:38:10;;;;;;;2.42;0.50;;;3.80;88.30;;;;;;5052931;28;20067;-83
2024/03/25 04:40:36;;;;;;;1.40;0.40;;;3.80;88.80;;;;;;5052298;28;20773;-82
2024/03/25 04:43:02;;;;;;;0.28;0.20;;;3.70;89.00;;;;;;5051194;28;20495;-82
2024/03/25 04:45:28;;;;;;;1.95;0.40;;;3.80;88.30;;;;;;5051385;28;20064;-82
2024/03/25 04:47:53;;;;;;;0.80;0.40;;;4.00;88.10;;;;;;5049311;28;20033;-80
2024/03/25 04:50:19;;;;;;;0.82;0.30;;;3.50;89.00;;;;;;5048340;28;20037;-83
2024/03/25 04:52:44;;;;;;;0.73;0.50;;;3.50;89.70;;;;;;5050593;28;20509;-83
2024/03/25 04:55:10;;;;;;;1.77;0.40;;;3.50;89.40;;;;;;5048697;28;20020;-83
2024/03/25 04:57:36;;;;;;;1.55;0.50;;;3.60;89.10;;;;;;5050143;28;20718;-83
2024/03/25 05:00:02;;;;;;;1.13;0.32;;;3.50;90.20;;;;;;5052816;28;20032;-82
2024/03/25 05:02:27;;;;;;;0.98;0.50;;;3.50;90.00;;;;;;5050069;28;20029;-82
2024/03/25 05:04:54;;;;;;;0.30;0.13;;;3.50;89.80;;;;;;5048312;28;20059;-82
2024/03/25 05:07:19;;;;;;;2.28;0.80;;;3.50;90.00;;;;;;5048147;28;20119;-82
2024/03/25 05:09:45;;;;;;;1.23;0.40;;;3.10;90.20;;;;;;5048606;28;20029;-83
2024/03/25 05:12:10;;;;;;;2.40;0.63;;;3.40;89.90;;;;;;5049085;28;20049;-83
2024/03/25 05:14:36;;;;;;;1.27;0.52;;;3.50;89.30;;;;;;5051243;28;20044;-83
2024/03/25 05:17:04;;;;;;;0.22;0.20;;;3.60;88.60;;;;;;5050858;28;20029;-80
2024/03/25 05:19:29;;;;;;;0.88;0.50;;;3.40;89.70;;;;;;5051737;28;20055;-80
2024/03/25 05:21:55;;;;;;;1.13;0.50;;;3.40;88.90;;;;;;5051085;28;20108;-80
2024/03/25 05:24:21;;;;;;;0.88;0.40;;;3.60;88.90;;;;;;5051666;28;20036;-81
2024/03/25 05:26:46;;;;;;;1.38;0.73;;;3.70;89.00;;;;;;5050761;28;20035;-80
2024/03/25 05:29:12;;;;;;;2.25;0.68;;;3.60;90.50;;;;;;5051229;28;20386;-80
2024/03/25 05:31:39;;;;;;;1.70;0.77;;;3.50;90.90;;;;;;5050174;28;20052;-79
2024/03/25 05:34:08;;;;;;;0.88;0.40;;;3.40;90.50;;;;;;5051056;28;20028;-80
2024/03/25 05:36:34;;;;;;;1.23;0.35;;;3.20;90.60;;;;;;5051490;28;20036;-80
2024/03/25 05:38:59;;;;;;;1.15;0.47;;;3.10;90.40;;;;;;5048457;28;20033;-80
2024/03/25 05:41:25;;;;;;;1.33;0.45;;;3.00;90.80;;;;;;5048728;28;20037;-80
2024/03/25 05:43:51;;;;;;;0.70;0.38;;;3.40;90.30;;;;;;5051375;28;20094;-80
2024/03/25 05:46:16;;;;;;;1.15;0.40;;;3.10;90.40;;;;;;5050363;28;20032;-80
2024/03/25 05:48:43;;;;;;;1.13;0.50;;;3.40;89.90;;;;;;5050747;28;20048;-80
2024/03/25 05:51:08;;;;;;;0.80;0.28;;;3.40;90.10;;;;;;5050851;28;20071;-79
2024/03/25 05:53:34;;;;;;;1.58;0.70;;;3.30;89.80;;;;;;5051093;28;20115;-82
2024/03/25 05:56:00;;;;;;;1.15;0.40;;;3.10;90.50;;;;;;5050915;28;20040;-82
2024/03/25 05:58:26;;;;;;;0.93;0.38;;;3.20;90.30;;;;;;5048141;28;20393;-81
2024/03/25 06:00:55;;;;;;;1.30;0.50;;;3.40;90.00;;;;;;5047452;28;20045;-82
2024/03/25 06:03:21;;;;;;;2.03;0.60;;;3.20;90.10;;;;;;5048201;28;20086;-82
2024/03/25 06:05:48;;;;;;;1.52;0.30;;;3.40;90.00;;;;;;5047208;28;20037;-83
2024/03/25 06:08:25;;;;;;;1.05;0.40;;;3.50;89.90;;;;;;5048749;28;20035;-83
2024/03/25 06:10:52;;;;;;;1.20;0.60;;;3.30;90.30;;;;;;5047803;28;20037;-82
2024/03/25 06:13:17;;;;;;;1.00;0.35;;;3.50;89.60;;;;;;5047099;28;20043;-83
2024/03/25 06:15:43;;;;;;;1.85;0.50;;;3.20;90.20;;;;;;5049679;28;20036;-82
2024/03/25 06:18:09;;;;;;;0.50;0.30;;;3.20;90.30;;;;;;5051442;28;20033;-83
2024/03/25 06:20:34;;;;;;;1.25;0.38;;;3.20;90.50;;;;;;5058552;28;20059;-79
2024/03/25 06:23:01;;;;;;;0.88;0.50;;;3.30;90.40;;;;;;5049267;28;20028;-79
2024/03/25 06:25:27;;;;;;;0.80;0.35;;;3.20;90.20;;;;;;5049784;28;20044;-82
2024/03/25 06:27:52;;;;;;;0.40;0.28;;;3.30;90.60;;;;;;5047631;28;20701;-79
2024/03/25 06:35:46;;;;;;;1.13;0.52;;;3.50;90.40;;;;;;5055979;28;20086;-82
2024/03/25 06:38:12;;;;;;;1.15;0.45;;;3.70;90.10;;;;;;5053000;28;20394;-83
2024/03/25 06:40:37;;;;;;;0.80;0.32;;;3.80;90.00;;;;;;5048601;28;20782;-80
2024/03/25 06:43:04;;;;;;;1.52;0.50;;;3.80;90.30;;;;;;5048156;28;20029;-81
2024/03/25 06:45:29;;;;;;;0.93;0.50;;;4.00;90.80;;;;;;5048897;28;20148;-81
2024/03/25 06:47:55;;;;;;;1.10;0.60;;;4.10;88.90;;;;;;5047427;28;20041;-81
2024/03/25 06:50:21;;;;;;;1.35;0.45;;;4.30;88.70;;;;;;5047923;28;20388;-82
2024/03/25 06:52:47;;;;;;;0.57;0.30;;;4.20;90.00;;;;;;5048128;28;20048;-81
2024/03/25 06:55:12;;;;;;;1.90;0.65;;;4.50;88.50;;;;;;5047782;28;20024;-82
2024/03/25 06:57:38;;;;;;;0.68;0.30;;;4.60;88.50;;;;;;5047838;28;20557;-82
2024/03/25 07:00:09;;;;;;;0.55;0.20;;;4.70;88.30;;;;;;5048608;28;20024;-80
2024/03/25 07:02:35;;;;;;;1.20;0.52;;;4.70;88.00;;;;;;5048441;28;20079;-82
2024/03/25 07:05:01;;;;;;;1.25;0.43;;;4.80;88.30;;;;;;5048441;28;21009;-81
2024/03/25 07:07:26;;;;;;;1.40;0.50;;;4.80;89.10;;;;;;5048492;28;20512;-82
2024/03/25 07:09:52;;;;;;;1.13;0.43;;;4.90;88.40;;;;;;5048032;28;20044;-82
2024/03/25 07:12:18;;;;;;;1.92;0.60;;;4.90;89.00;;;;;;5046787;28;20044;-82
2024/03/25 07:14:44;;;;;;;1.65;0.52;;;5.00;88.60;;;;;;5048162;28;20087;-81
2024/03/25 07:17:09;;;;;;;1.77;0.52;;;5.00;88.60;;;;;;5047475;28;20394;-82
2024/03/25 07:19:35;;;;;;;0.63;0.22;;;5.00;87.40;;;;;;5048405;28;21409;-82
2024/03/25 07:22:01;;;;;;;1.13;0.40;;;5.10;86.80;;;;;;5047616;28;20040;-82
2024/03/25 07:24:26;;;;;;;1.23;0.50;;;5.20;86.90;;;;;;5046756;28;20061;-82
2024/03/25 07:26:52;;;;;;;1.77;0.47;;;5.20;86.90;;;;;;5047916;28;20075;-82
2024/03/25 07:29:18;;;;;;;2.35;0.55;;;5.20;86.10;;;;;;5047242;28;20040;-82
2024/03/25 07:31:43;;;;;;;1.23;0.25;;;5.20;86.30;;;;;;5047496;28;21028;-83
2024/03/25 07:34:11;;;;;;;1.23;0.50;;;5.30;86.70;;;;;;5047360;28;21663;-82
2024/03/25 07:36:38;;;;;;;1.38;0.60;;;5.30;87.10;;;;;;5046939;28;20123;-83
2024/03/25 07:39:06;;;;;;;1.45;0.43;;;5.50;87.40;;;;;;5047361;28;20067;-83
2024/03/25 07:41:31;;;;;;;1.17;0.43;;;5.50;87.40;;;;;;5048691;28;20535;-83
2024/03/25 07:43:57;;;;;;;3.67;0.60;;;5.70;88.30;;;;;;5051381;28;20032;-82
2024/03/25 07:46:22;;;;;;;1.20;0.55;;;5.80;89.10;;;;;;5050153;28;20043;-82
2024/03/25 07:48:48;;;;;;;0.52;0.30;;;5.70;88.70;;;;;;5052286;28;20075;-82
2024/03/25 07:51:14;;;;;;;2.05;0.60;;;5.50;88.60;;;;;;5050745;28;20458;-83
2024/03/25 07:53:39;;;;;;;1.95;0.52;;;5.50;88.50;;;;;;5050759;28;20036;-83
2024/03/25 07:56:05;;;;;;;1.40;0.60;;;5.60;88.90;;;;;;5052234;28;20525;-80
2024/03/25 07:58:31;;;;;;;0.52;0.30;;;5.60;86.70;;;;;;5051114;28;20037;-82
2024/03/25 08:00:56;;;;;;;1.27;0.60;;;5.60;87.10;;;;;;5050984;28;20064;-80
2024/03/25 08:03:25;;;;;;;0.77;0.45;;;5.70;87.50;;;;;;5051913;28;20068;-84
2024/03/25 08:05:50;;;;;;;1.85;0.30;;;5.70;87.50;;;;;;5050559;28;20861;-83
2024/03/25 08:08:16;;;;;;;90.82;42.55;;;5.80;87.00;;;;;;5044061;28;20045;-82
2024/03/25 08:10:41;;;;;;;264.05;123.63;;;6.00;87.90;;;;;;5049967;28;20061;-83
2024/03/25 08:13:07;;;;;;;338.77;151.57;;;6.20;88.90;;;;;;5051416;28;20437;-83
2024/03/25 08:15:33;;;;;;;103.88;47.95;;;6.40;87.70;;;;;;5052407;28;20154;-84
2024/03/25 08:17:58;;;;;;;36.97;19.75;;;6.50;86.70;;;;;;5052588;28;20039;-84
2024/03/25 08:20:24;;;;;;;20.50;10.30;;;6.50;85.10;;;;;;5052982;28;20049;-83
2024/03/25 08:22:50;;;;;;;13.50;7.82;;;6.50;85.30;;;;;;5053713;28;20040;-81
2024/03/25 08:25:15;;;;;;;7.32;5.97;;;6.50;86.00;;;;;;5052655;28;20060;-81
2024/03/25 08:27:42;;;;;;;4.93;3.03;;;6.50;86.50;;;;;;5054296;28;20078;-82
2024/03/25 08:30:13;;;;;;;7.25;3.20;;;6.60;86.20;;;;;;5052737;28;20029;-82
2024/03/25 08:32:39;;;;;;;2.90;1.42;;;6.70;84.90;;;;;;5052915;28;20921;-82
2024/03/25 08:35:04;;;;;;;2.33;1.10;;;6.70;84.90;;;;;;5052836;28;20032;-82
2024/03/25 08:37:30;;;;;;;2.17;1.02;;;6.70;85.20;;;;;;5053998;28;20028;-81
2024/03/25 08:39:56;;;;;;;3.65;0.85;;;6.80;85.50;;;;;;5052656;28;20032;-81
2024/03/25 08:42:22;;;;;;;3.65;0.93;;;7.00;87.40;;;;;;5053238;28;20040;-81
2024/03/25 08:44:47;;;;;;;5.20;2.08;;;7.10;86.80;;;;;;5052893;28;20064;-81
2024/03/25 08:47:13;;;;;;;1.77;1.10;;;7.10;85.90;;;;;;5051994;28;20073;-81
2024/03/25 08:49:39;;;;;;;5.53;1.10;;;7.10;86.20;;;;;;5052613;28;20174;-81
2024/03/25 08:52:04;;;;;;;1.60;0.57;;;7.10;85.20;;;;;;5053100;28;20701;-81
2024/03/25 08:54:30;;;;;;;3.25;1.20;;;7.30;87.10;;;;;;5051535;28;20044;-83
2024/03/25 08:56:56;;;;;;;1.65;0.70;;;7.30;84.30;;;;;;5053393;28;20402;-83
2024/03/25 08:59:21;;;;;;;2.47;0.80;;;7.40;85.40;;;;;;5051778;28;20040;-82
2024/03/25 09:01:47;;;;;;;2.05;1.00;;;7.50;86.00;;;;;;5052510;28;20105;-83
2024/03/25 09:04:13;;;;;;;1.55;0.75;;;7.60;87.10;;;;;;5052062;28;20407;-84
2024/03/25 09:06:39;;;;;;;1.40;0.73;;;7.60;85.80;;;;;;5051613;28;20039;-81
2024/03/25 09:11:49;;;;;;;16.83;8.77;;;7.70;86.60;;;;;;5051635;28;20147;-84
2024/03/25 09:14:14;;;;;;;8.73;4.35;;;7.70;85.30;;;;;;5051270;28;20746;-83
2024/03/25 09:16:40;;;;;;;5.90;2.15;;;7.80;87.30;;;;;;5051696;28;20032;-84
2024/03/25 09:19:05;;;;;;;2.67;1.52;;;8.40;86.50;;;;;;5053523;28;20033;-83
2024/03/25 09:21:31;;;;;;;1.65;0.43;;;12.30;80.40;;;;;;5051369;28;20041;-83
2024/03/25 09:23:58;;;;;;;1.50;0.65;;;15.00;76.00;;;;;;5051616;28;20063;-81
2024/03/25 09:26:23;;;;;;;0.77;0.30;;;15.30;75.90;;;;;;5050665;28;20060;-84
2024/03/25 09:28:49;;;;;;;3.05;0.65;;;15.60;73.90;;;;;;5047730;28;20479;-80
2024/03/25 09:31:15;;;;;;;4.32;2.13;;;16.80;72.50;;;;;;5046798;28;20552;-81
2024/03/25 09:33:41;;;;;;;5.45;2.75;;;16.90;71.60;;;;;;5050267;28;20070;-83
2024/03/25 09:36:06;;;;;;;3.72;1.60;;;18.10;71.10;;;;;;5048956;28;20116;-84
2024/03/25 09:38:32;;;;;;;7.45;4.38;;;18.50;69.70;;;;;;5049137;28;20044;-83
2024/03/25 09:40:58;;;;;;;6.93;2.38;;;18.20;69.00;;;;;;5050130;28;20089;-84
2024/03/25 09:43:32;;;;;;;4.57;1.73;;;18.50;69.60;;;;;;5048655;28;20098;-83
2024/03/25 09:46:00;;;;;;;3.80;1.60;;;18.80;68.00;;;;;;5048588;28;20067;-83
2024/03/25 09:48:27;;;;;;;5.20;1.45;;;17.60;68.60;;;;;;5048533;28;20033;-82
2024/03/25 09:50:56;;;;;;;3.30;1.63;;;15.70;69.20;;;;;;5048022;28;20040;-80
2024/03/25 09:53:23;;;;;;;9.18;4.55;;;13.90;68.90;;;;;;5046916;28;21994;-81
2024/03/25 09:55:49;;;;;;;9.07;3.03;;;12.40;71.10;;;;;;5048075;28;20029;-81
2024/03/25 09:58:28;;;;;;;2.75;1.08;;;11.50;73.20;;;;;;5047187;28;20040;-81
2024/03/25 10:01:04;;;;;;;4.80;1.83;;;10.50;72.90;;;;;;5048649;28;20124;-80
2024/03/25 10:03:29;;;;;;;9.32;4.22;;;10.60;76.70;;;;;;5048389;28;20034;-82
2024/03/25 10:05:55;;;;;;;55.22;29.67;;;10.50;75.20;;;;;;5049641;28;20055;-83
2024/03/25 10:08:21;;;;;;;27.48;13.02;;;10.50;73.80;;;;;;5051540;28;20495;-84
2024/03/25 10:10:47;;;;;;;11.70;5.18;;;10.70;74.90;;;;;;5050646;28;20036;-81
2024/03/25 10:13:13;;;;;;;4.45;1.85;;;10.60;73.80;;;;;;5052516;28;20553;-81
2024/03/25 10:15:39;;;;;;;2.38;0.75;;;10.40;74.90;;;;;;5050896;28;20037;-81
2024/03/25 10:18:04;;;;;;;53.30;24.17;;;10.50;74.20;;;;;;5050198;28;20058;-80
2024/03/25 10:20:30;;;;;;;13.05;4.63;;;10.50;73.30;;;;;;5052121;28;20090;-79
2024/03/25 10:22:57;;;;;;;6.03;2.78;;;10.50;72.10;;;;;;5050008;28;20460;-81
2024/03/25 10:25:28;;;;;;;34.78;14.23;;;10.60;73.30;;;;;;5050247;28;20437;-81
2024/03/25 10:27:54;;;;;;;36.03;12.98;;;11.00;74.70;;;;;;5050971;28;20043;-80
2024/03/25 10:30:20;;;;;;;8.02;3.35;;;11.20;76.00;;;;;;5048802;28;20751;-81
2024/03/25 10:32:46;;;;;;;3.53;1.48;;;11.30;75.10;;;;;;5047742;28;20036;-81
2024/03/25 10:35:28;;;;;;;2.17;0.70;;;11.30;73.90;;;;;;5048198;28;20047;-81
2024/03/25 10:38:07;;;;;;;2.05;0.63;;;11.20;73.80;;;;;;5046838;28;20036;-81
2024/03/25 10:40:37;;;;;;;1.20;0.50;;;11.30;74.40;;;;;;5046849;28;20635;-80
2024/03/25 10:43:06;;;;;;;0.80;0.30;;;11.20;72.10;;;;;;5047350;28;20033;-80
2024/03/25 10:45:34;;;;;;;2.58;0.30;;;11.20;72.60;;;;;;5047812;28;20060;-81
2024/03/25 10:48:17;;;;;;;4.80;1.40;;;11.30;74.00;;;;;;5048913;28;20033;-80
2024/03/25 10:50:44;;;;;;;2.10;0.50;;;11.60;74.00;;;;;;5047732;28;20301;-80
2024/03/25 10:53:11;;;;;;;1.42;0.40;;;11.70;73.60;;;;;;5046782;28;20082;-80
2024/03/25 10:55:37;;;;;;;4.03;1.05;;;11.80;73.70;;;;;;5047969;28;20047;-81
2024/03/25 10:58:05;;;;;;;6.43;2.30;;;11.70;72.50;;;;;;5047426;28;20031;-81
2024/03/25 11:00:32;;;;;;;0.82;0.40;;;11.90;74.80;;;;;;5047796;28;20039;-82
2024/03/25 11:02:59;;;;;;;11.18;5.38;;;12.10;72.70;;;;;;5048698;28;20068;-84
2024/03/25 11:05:25;;;;;;;33.53;16.98;;;12.20;71.20;;;;;;5047472;28;20033;-85
2024/03/25 11:07:51;;;;;;;30.50;15.15;;;12.50;73.10;;;;;;5046249;28;20032;-84
2024/03/25 11:10:17;;;;;;;9.70;4.93;;;12.60;71.70;;;;;;5047795;28;20356;-82
2024/03/25 11:12:43;;;;;;;6.82;3.42;;;12.70;73.60;;;;;;5047763;28;20040;-83
2024/03/25 11:15:09;;;;;;;12.90;4.18;;;12.60;71.30;;;;;;5047651;28;20446;-83
2024/03/25 11:17:36;;;;;;;6.25;2.75;;;13.10;72.20;;;;;;5050207;28;20504;-83
2024/03/25 11:20:14;;;;;;;2.53;1.10;;;13.30;72.70;;;;;;5052679;28;20043;-83
2024/03/25 11:22:52;;;;;;;3.28;1.35;;;13.20;71.20;;;;;;5050669;28;20028;-82
2024/03/25 11:25:20;;;;;;;2.00;0.70;;;13.00;70.50;;;;;;5052808;28;20574;-79
2024/03/25 11:27:47;;;;;;;1.17;0.52;;;13.00;70.70;;;;;;5049864;28;20040;-80
2024/03/25 11:30:14;;;;;;;0.75;0.43;;;13.20;70.90;;;;;;5051749;28;20028;-84
2024/03/25 11:32:51;;;;;;;0.90;0.30;;;13.20;68.20;;;;;;5051681;28;20135;-83
2024/03/25 11:35:17;;;;;;;1.25;0.45;;;12.90;68.00;;;;;;5025462;28;20192;-83
2024/03/25 11:37:52;;;;;;;3.38;1.42;;;13.10;69.90;;;;;;5013358;28;20635;-81
2024/03/25 11:40:18;;;;;;;4.20;0.70;;;13.50;70.20;;;;;;5011918;28;20041;-80
2024/03/25 11:42:44;;;;;;;3.30;0.50;;;13.80;72.20;;;;;;5013755;28;20113;-83
2024/03/25 11:45:20;;;;;;;0.52;0.20;;;13.80;69.40;;;;;;5013423;28;20041;-83
2024/03/25 11:47:48;;;;;;;0.63;0.35;;;13.80;68.40;;;;;;5013009;28;20030;-81
2024/03/25 11:50:18;;;;;;;0.98;0.28;;;13.90;70.70;;;;;;5012200;28;20041;-81
2024/03/25 11:52:44;;;;;;;0.60;0.20;;;14.00;67.70;;;;;;5013308;28;20045;-81
2024/03/25 11:55:14;;;;;;;0.70;0.20;;;13.80;66.70;;;;;;5013234;28;20041;-80
2024/03/25 11:57:40;;;;;;;0.43;0.20;;;13.70;65.40;;;;;;5012318;28;20056;-81
2024/03/25 12:00:10;;;;;;;0.90;0.50;;;13.80;65.90;;;;;;5011955;28;20038;-80
2024/03/25 12:02:37;;;;;;;0.57;0.25;;;14.20;65.40;;;;;;5012837;28;20038;-81
2024/03/25 12:05:05;;;;;;;0.30;0.15;;;14.60;67.60;;;;;;5014015;28;20040;-80
2024/03/25 12:07:32;;;;;;;2.70;0.60;;;14.70;64.70;;;;;;5011621;28;20040;-82
2024/03/25 12:12:43;;;;;;;0.55;0.20;;;14.70;64.50;;;;;;5018108;28;20522;-80
2024/03/25 12:15:09;;;;;;;0.80;0.35;;;15.00;66.70;;;;;;5011370;28;20034;-82
2024/03/25 12:17:35;;;;;;;1.50;0.60;;;14.80;62.00;;;;;;5011614;28;20052;-81
2024/03/25 12:20:09;;;;;;;2.03;0.40;;;15.10;63.10;;;;;;5015616;28;20072;-80
2024/03/25 12:22:35;;;;;;;0.47;0.17;;;15.30;61.90;;;;;;5014269;28;20030;-81
2024/03/25 12:25:06;;;;;;;2.25;0.50;;;15.30;61.80;;;;;;5010556;28;21054;-82
2024/03/25 12:27:32;;;;;;;0.15;0.13;;;15.30;61.10;;;;;;5014218;28;20048;-81
2024/03/25 12:30:04;;;;;;;0.35;0.20;;;15.40;61.50;;;;;;5011910;28;20026;-82
2024/03/25 12:32:38;;;;;;;1.48;0.40;;;15.60;62.50;;;;;;5011948;28;20072;-83
2024/03/25 12:35:07;;;;;;;2.67;1.05;;;15.70;61.70;;;;;;5010537;28;20037;-82
2024/03/25 12:37:33;;;;;;;2.65;0.82;;;15.70;60.80;;;;;;5011440;28;20114;-80
2024/03/25 12:39:59;;;;;;;1.83;0.65;;;15.60;60.50;;;;;;5013652;28;20800;-82
2024/03/25 12:42:26;;;;;;;0.90;0.40;;;15.60;60.90;;;;;;5012983;28;20040;-82
2024/03/25 12:44:54;;;;;;;2.17;0.40;;;15.70;61.90;;;;;;5017271;28;20050;-80
2024/03/25 12:47:20;;;;;;;1.55;0.35;;;15.90;60.40;;;;;;5010469;28;20447;-80
2024/03/25 12:49:45;;;;;;;0.52;0.20;;;16.00;63.30;;;;;;5009142;28;20531;-82
2024/03/25 12:52:12;;;;;;;3.95;0.30;;;15.90;59.50;;;;;;5011169;28;20099;-80
2024/03/25 12:54:37;;;;;;;0.45;0.28;;;15.80;59.80;;;;;;5011295;28;20124;-82
2024/03/25 12:57:03;;;;;;;1.02;0.38;;;16.00;61.10;;;;;;5010587;28;20025;-82
2024/03/25 12:59:29;;;;;;;1.15;0.40;;;16.00;59.00;;;;;;5010455;28;20496;-80